Time;durP1;ratioP1;P1;durP2;ratioP2;P2;SDS_P1;SDS_P2;PMS_P1;PMS_P2;Temp;Humidity;BMP_temperature;BMP_pressure;BME280_temperature;BME280_humidity;BME280_pressure;Samples;Min_cycle;Max_cycle;Signal;HPM_P1;HPM_P2
2022/04/17 00:04:18;;;;;;;8.37;3.43;;;;;;;1.79;75.84;102171.70;3582587;81;98582;-78
2022/04/17 00:09:20;;;;;;;10.13;4.00;;;;;;;1.80;75.93;102166.56;3566286;81;33763;-79
2022/04/17 00:14:21;;;;;;;11.33;3.60;;;;;;;1.75;75.90;102160.58;3537981;81;99077;-79
2022/04/17 00:19:22;;;;;;;8.37;3.50;;;;;;;1.70;75.92;102156.52;3562233;82;98680;-79
2022/04/17 00:24:23;;;;;;;8.67;3.67;;;;;;;1.67;75.98;102160.34;3548697;81;98861;-79
2022/04/17 00:29:24;;;;;;;9.03;3.40;;;;;;;1.69;76.19;102151.40;3547974;82;98805;-79
2022/04/17 00:34:26;;;;;;;11.43;4.10;;;;;;;1.71;76.34;102149.20;3510393;80;98826;-79
2022/04/17 00:39:28;;;;;;;11.17;4.00;;;;;;;1.70;76.30;102144.31;3522014;82;32455;-79
2022/04/17 00:44:29;;;;;;;8.95;3.25;;;;;;;1.67;76.76;102136.73;3514509;82;98551;-79
2022/04/17 00:49:30;;;;;;;8.60;3.53;;;;;;;1.64;76.89;102140.55;3479685;84;98711;-79
2022/04/17 00:54:31;;;;;;;8.57;3.77;;;;;;;1.61;76.69;102136.48;3466786;84;98490;-79
2022/04/17 00:59:33;;;;;;;9.30;3.33;;;;;;;1.60;76.95;102136.20;3468442;84;98891;-79
2022/04/17 01:04:34;;;;;;;9.20;3.17;;;;;;;1.56;76.78;102124.82;3442705;84;98536;-79
2022/04/17 01:09:36;;;;;;;7.27;3.03;;;;;;;1.52;76.75;102118.31;3480141;84;33011;-79
2022/04/17 01:14:40;;;;;;;10.60;3.40;;;;;;;1.46;77.22;102109.39;3469660;84;98507;-79
2022/04/17 01:19:41;;;;;;;8.93;3.60;;;;;;;1.47;77.63;102116.44;3477975;84;98580;-79
2022/04/17 01:30:03;;;;;;;9.27;3.60;;;;;;;1.48;77.66;102126.20;3475871;83;98641;-79
2022/04/17 01:35:05;;;;;;;7.93;3.03;;;;;;;1.47;77.72;102124.58;3471658;83;98926;-78
2022/04/17 01:40:08;;;;;;;7.57;2.83;;;;;;;1.46;77.66;102122.13;3479855;84;28171;-79
2022/04/17 01:45:09;;;;;;;9.28;3.60;;;;;;;1.44;77.72;102125.14;3469755;84;98491;-79
2022/04/17 01:50:10;;;;;;;8.70;3.42;;;;;;;1.41;77.72;102127.04;3474098;84;98648;-77
2022/04/17 01:55:11;;;;;;;9.70;3.55;;;;;;;1.36;77.63;102120.27;3456817;83;98609;-79
2022/04/17 02:00:13;;;;;;;9.97;3.87;;;;;;;1.31;77.99;102118.92;3454500;84;98860;-79
2022/04/17 02:05:14;;;;;;;11.83;3.57;;;;;;;1.28;78.41;102122.73;3450694;84;98471;-79
2022/04/17 02:10:19;;;;;;;10.27;3.27;;;;;;;1.27;78.45;102121.90;3459227;84;98649;-79
2022/04/17 02:15:17;;;;;;;10.70;3.67;;;;;;;1.24;78.85;102122.47;3454464;84;98400;-79
2022/04/17 02:20:19;;;;;;;6.97;3.00;;;;;;;1.18;78.79;102115.95;3463285;84;98459;-79
2022/04/17 02:25:20;;;;;;;8.20;2.77;;;;;;;1.13;78.79;102113.25;3434259;84;99086;-78
2022/04/17 02:30:20;;;;;;;9.80;2.53;;;;;;;1.10;78.60;102115.17;3461080;84;98546;-78
2022/04/17 02:35:21;;;;;;;8.10;2.90;;;;;;;1.03;78.55;102106.48;3450906;84;98853;-79
2022/04/17 02:40:23;;;;;;;6.57;2.77;;;;;;;0.94;78.89;102110.84;3458316;84;98539;-79
2022/04/17 02:45:24;;;;;;;5.40;2.17;;;;;;;0.86;79.46;102101.89;3455617;84;98192;-79
2022/04/17 02:50:25;;;;;;;8.27;3.13;;;;;;;0.78;79.84;102095.11;3589399;81;98662;-79
2022/04/17 02:55:26;;;;;;;9.07;3.43;;;;;;;0.73;79.98;102096.47;3546163;81;98496;-78
2022/04/17 03:00:27;;;;;;;8.33;2.50;;;;;;;0.79;79.83;102100.01;3518266;82;98510;-78
2022/04/17 03:05:36;;;;;;;9.90;4.10;;;;;;;0.82;79.31;102096.77;3528436;82;98555;-78
2022/04/17 03:10:40;;;;;;;10.47;3.73;;;;;;;0.84;79.51;102091.34;3527470;82;98472;-79
2022/04/17 03:15:41;;;;;;;7.78;3.00;;;;;;;0.81;79.46;102093.77;3533131;82;98358;-79
2022/04/17 03:20:42;;;;;;;7.42;2.83;;;;;;;0.77;79.28;102092.14;3549869;82;98366;-79
2022/04/17 03:25:44;;;;;;;7.53;3.77;;;;;;;0.71;79.59;102085.10;3526990;82;98651;-79
2022/04/17 03:30:45;;;;;;;9.27;3.43;;;;;;;0.60;79.96;102081.33;3534552;82;98953;-79
2022/04/17 03:35:46;;;;;;;9.47;3.63;;;;;;;0.58;79.84;102080.23;3521619;82;98604;-79
2022/04/17 03:40:47;;;;;;;8.73;3.37;;;;;;;0.53;79.64;102078.88;3524004;82;98541;-79
2022/04/17 03:45:48;;;;;;;9.77;3.70;;;;;;;0.52;79.68;102079.14;3529805;82;98172;-79
2022/04/17 03:50:49;;;;;;;8.27;3.97;;;;;;;0.49;79.69;102071.54;3549673;80;98646;-79
2022/04/17 03:55:50;;;;;;;10.70;4.30;;;;;;;0.44;80.02;102082.40;3599147;80;98315;-79
2022/04/17 04:00:51;;;;;;;11.63;4.43;;;;;;;0.31;80.42;102076.14;3604591;80;98731;-79
2022/04/17 04:05:52;;;;;;;11.03;3.90;;;;;;;0.27;80.41;102072.33;3597588;80;98640;-79
2022/04/17 04:10:53;;;;;;;8.33;3.27;;;;;;;0.24;80.56;102064.20;3604224;80;98739;-80
2022/04/17 04:15:55;;;;;;;8.73;3.40;;;;;;;0.22;80.66;102063.67;3600061;80;98252;-79
2022/04/17 04:20:56;;;;;;;9.30;3.95;;;;;;;0.24;81.04;102061.50;3603865;79;98392;-79
2022/04/17 04:25:57;;;;;;;10.77;4.20;;;;;;;0.25;81.60;102058.27;3600249;80;98727;-80
2022/04/17 04:30:58;;;;;;;11.10;4.60;;;;;;;0.27;81.82;102051.50;3602203;80;98729;-79
2022/04/17 04:36:00;;;;;;;12.30;5.10;;;;;;;0.31;82.63;102058.02;3598049;80;98703;-79
2022/04/17 04:41:01;;;;;;;14.63;5.30;;;;;;;0.37;83.05;102054.75;3606051;80;98765;-79
2022/04/17 04:46:07;;;;;;;12.07;5.67;;;;;;;0.45;83.29;102055.02;3598934;80;98709;-80
2022/04/17 04:51:08;;;;;;;10.97;4.73;;;;;;;0.58;84.00;102063.16;3599275;80;98765;-79
2022/04/17 04:56:10;;;;;;;13.87;4.90;;;;;;;0.70;84.01;102059.63;3556508;81;98610;-80
2022/04/17 05:01:12;;;;;;;12.03;5.00;;;;;;;0.84;84.02;102054.77;3560903;81;99097;-79
2022/04/17 05:06:13;;;;;;;12.30;5.53;;;;;;;0.99;84.22;102052.00;3554405;80;98712;-78
2022/04/17 05:11:14;;;;;;;12.33;4.67;;;;;;;1.15;84.15;102040.03;3560823;81;98650;-79
2022/04/17 05:16:15;;;;;;;12.37;5.40;;;;;;;1.35;84.38;102045.94;3556331;81;98554;-79
2022/04/17 05:21:19;;;;;;;13.77;5.70;;;;;;;1.49;84.57;102032.06;3564197;81;25871;-78
2022/04/17 05:26:19;;;;;;;11.97;5.40;;;;;;;1.77;84.10;102045.78;3555354;80;98947;-79
2022/04/17 05:31:19;;;;;;;11.57;4.93;;;;;;;1.99;83.84;102040.77;3560665;81;97835;-79
2022/04/17 05:36:21;;;;;;;10.40;4.70;;;;;;;2.22;83.65;102046.03;3555116;81;98725;-78
2022/04/17 05:41:24;;;;;;;9.13;4.20;;;;;;;2.46;83.44;102046.95;3559758;78;99196;-78
2022/04/17 05:46:27;;;;;;;11.60;4.60;;;;;;;2.72;83.04;102041.01;3551503;81;98900;-80
2022/04/17 05:51:28;;;;;;;8.70;4.03;;;;;;;3.07;82.78;102038.50;3562358;81;30625;-79
2022/04/17 05:56:29;;;;;;;11.77;4.73;;;;;;;3.39;82.84;102038.12;3551669;81;98609;-80
2022/04/17 06:01:30;;;;;;;9.20;3.80;;;;;;;3.66;81.91;102032.09;3563281;81;98595;-80
2022/04/17 06:06:32;;;;;;;10.07;3.63;;;;;;;3.86;80.71;102030.44;3554746;81;98606;-79
2022/04/17 06:11:32;;;;;;;8.90;3.17;;;;;;;4.02;79.47;102020.95;3558332;81;98657;-79
2022/04/17 06:16:33;;;;;;;11.73;4.23;;;;;;;4.15;78.87;102023.74;3553721;81;98405;-80
2022/04/17 06:21:36;;;;;;;12.60;4.87;;;;;;;4.27;77.96;102024.09;3563832;81;26559;-80
2022/04/17 06:26:36;;;;;;;15.13;5.33;;;;;;;4.40;78.59;102022.00;3554909;81;98530;-79
2022/04/17 06:31:44;;;;;;;11.33;4.10;;;;;;;4.63;79.12;102026.52;3563800;81;98619;-78
2022/04/17 06:36:40;;;;;;;10.83;4.77;;;;;;;4.79;77.12;102027.88;3554379;80;98635;-78
2022/04/17 06:41:41;;;;;;;11.20;4.77;;;;;;;4.96;77.00;102020.49;3560923;81;98771;-79
2022/04/17 06:46:42;;;;;;;9.85;4.30;;;;;;;5.26;76.47;102017.17;3561723;80;98910;-79
2022/04/17 06:51:43;;;;;;;11.00;4.17;;;;;;;5.48;76.29;102015.90;3576523;80;26503;-78
2022/04/17 06:56:44;;;;;;;7.93;3.37;;;;;;;5.66;73.28;102014.42;3594473;79;98655;-78
2022/04/17 07:01:45;;;;;;;5.93;2.03;;;;;;;5.81;72.57;102012.77;3593034;80;98699;-79
2022/04/17 07:06:45;;;;;;;7.70;3.40;;;;;;;6.01;70.84;102006.03;3583632;81;98686;-77
2022/04/17 07:11:46;;;;;;;8.50;3.53;;;;;;;6.18;69.69;102008.91;3596618;81;98380;-78
2022/04/17 07:16:47;;;;;;;8.10;3.20;;;;;;;6.33;69.62;102001.72;3577413;80;98534;-77
2022/04/17 07:21:48;;;;;;;6.83;3.30;;;;;;;6.50;69.16;102006.73;3579272;80;33738;-78
2022/04/17 07:26:53;;;;;;;7.83;2.67;;;;;;;6.64;68.81;101996.53;3583487;80;98394;-78
2022/04/17 07:31:53;;;;;;;5.73;1.90;;;;;;;6.77;68.42;102003.84;3580353;81;98373;-78
2022/04/17 07:36:54;;;;;;;5.37;1.77;;;;;;;6.94;66.32;101998.49;3587249;81;98902;-77
2022/04/17 07:41:55;;;;;;;6.20;1.63;;;;;;;7.04;62.90;102005.61;3587547;80;98564;-78
2022/04/17 07:46:56;;;;;;;4.60;1.90;;;;;;;7.12;63.11;102004.28;3584988;81;98401;-79
2022/04/17 07:51:57;;;;;;;5.30;2.03;;;;;;;7.26;62.57;101998.70;3592703;81;33207;-78
2022/04/17 07:56:58;;;;;;;4.33;1.70;;;;;;;7.44;63.09;102003.92;3603508;80;98316;-79
2022/04/17 08:02:11;;;;;;;4.73;1.63;;;;;;;7.59;62.74;101998.55;3606418;80;98358;-79
2022/04/17 08:07:05;;;;;;;2.53;1.27;;;;;;;7.74;58.88;101985.20;3599876;80;98479;-79
2022/04/17 08:12:06;;;;;;;6.07;2.10;;;;;;;7.88;60.50;101978.20;3585985;80;98545;-78
2022/04/17 08:17:07;;;;;;;3.83;1.60;;;;;;;8.00;58.15;101976.99;3602364;80;98540;-79
2022/04/17 08:22:08;;;;;;;5.87;2.30;;;;;;;8.20;58.28;101970.90;3609960;80;33436;-79
2022/04/17 08:27:10;;;;;;;4.27;1.73;;;;;;;8.49;57.77;101968.28;3601589;80;98486;-79
2022/04/17 08:32:11;;;;;;;4.70;1.90;;;;;;;8.91;57.89;101956.38;3606085;80;98232;-79
2022/04/17 08:37:12;;;;;;;4.07;1.73;;;;;;;9.71;58.01;101954.16;3602823;80;98517;-79
2022/04/17 08:42:13;;;;;;;4.97;1.80;;;;;;;10.68;58.82;101949.34;3606533;80;98685;-79
2022/04/17 08:47:15;;;;;;;5.33;2.30;;;;;;;11.68;57.52;101945.39;3601989;80;99247;-79
2022/04/17 08:52:17;;;;;;;4.57;2.33;;;;;;;12.75;57.28;101950.27;3606097;80;98824;-79
2022/04/17 08:57:18;;;;;;;4.97;2.40;;;;;;;13.41;53.76;101948.41;3602675;80;99072;-79
2022/04/17 09:02:19;;;;;;;6.20;2.20;;;;;;;13.74;51.45;101944.63;3606115;80;98705;-79
2022/04/17 09:07:20;;;;;;;4.67;2.22;;;;;;;14.01;50.73;101949.97;3595919;80;98911;-79
2022/04/17 09:12:26;;;;;;;4.43;2.13;;;;;;;14.69;50.34;101941.28;3605270;80;98825;-79
2022/04/17 09:17:34;;;;;;;4.42;2.00;;;;;;;15.59;51.48;101942.61;3598346;80;98816;-80
2022/04/17 09:22:53;;;;;;;4.95;2.22;;;;;;;15.78;47.74;101931.97;3609120;80;98837;-79
2022/04/17 09:28:04;;;;;;;5.12;2.60;;;;;;;16.18;46.45;101926.56;3602744;80;98690;-79
2022/04/17 09:33:12;;;;;;;5.55;2.20;;;;;;;16.90;48.95;101913.25;3603977;80;98418;-78
2022/04/17 09:38:10;;;;;;;7.37;2.98;;;;;;;17.69;47.46;101907.31;3597413;80;98660;-79
2022/04/17 09:43:17;;;;;;;5.73;2.90;;;;;;;18.41;45.26;101904.43;3605916;80;98929;-80
2022/04/17 09:48:18;;;;;;;7.25;2.95;;;;;;;18.79;44.09;101894.75;3581461;80;98814;-80
2022/04/17 09:53:32;;;;;;;2.90;1.50;;;;;;;18.96;43.68;101885.59;3605049;80;99146;-80
2022/04/17 09:58:48;;;;;;;3.57;1.87;;;;;;;19.97;42.63;101878.22;3592549;80;98898;-80
2022/04/17 10:03:50;;;;;;;4.53;1.80;;;;;;;20.54;42.52;101859.97;3598227;80;25957;-80
2022/04/17 10:08:52;;;;;;;5.15;1.70;;;;;;;21.38;41.29;101857.85;3589120;80;98701;-80
2022/04/17 10:13:53;;;;;;;4.78;2.10;;;;;;;22.11;41.85;101848.58;3599042;80;98681;-81
2022/04/17 10:18:54;;;;;;;3.73;1.90;;;;;;;22.65;40.05;101838.18;3590416;80;98899;-80
2022/04/17 10:23:59;;;;;;;4.23;1.53;;;;;;;23.14;38.39;101836.73;3596999;80;98787;-82
2022/04/17 10:29:05;;;;;;;3.60;1.90;;;;;;;23.29;37.77;101840.91;3590893;80;98918;-80
2022/04/17 10:34:37;;;;;;;4.40;1.70;;;;;;;23.47;36.08;101834.92;3592636;80;106570;-81
2022/04/17 10:39:48;;;;;;;5.05;2.00;;;;;;;22.47;35.61;101823.64;3597815;80;25874;-81
2022/04/17 10:45:06;;;;;;;4.35;1.90;;;;;;;21.98;35.68;101826.53;3584560;80;98973;-81
2022/04/17 10:50:08;;;;;;;5.05;1.95;;;;;;;21.47;35.32;101818.95;3590907;80;98833;-80
2022/04/17 10:55:14;;;;;;;4.95;2.37;;;;;;;20.52;35.00;101799.42;3555017;80;98863;-81
2022/04/17 11:00:30;;;;;;;3.67;1.95;;;;;;;20.64;34.26;101786.33;3579559;81;99115;-81
2022/04/17 11:10:57;;;;;;;4.87;2.12;;;;;;;20.75;35.23;101782.84;3534205;81;98776;-80
2022/04/17 11:15:59;;;;;;;6.10;2.15;;;;;;;21.36;35.00;101775.63;3573210;81;99021;-81
2022/04/17 11:21:00;;;;;;;4.53;1.98;;;;;;;21.65;34.23;101760.67;3557944;81;98845;-81
2022/04/17 11:26:02;;;;;;;5.37;2.33;;;;;;;21.36;34.65;101754.63;3574784;81;98621;-81
2022/04/17 11:31:03;;;;;;;4.25;1.92;;;;;;;21.76;34.86;101744.55;3578029;81;98935;-82
2022/04/17 11:36:08;;;;;;;5.23;2.00;;;;;;;21.66;34.84;101747.65;3569328;81;98808;-81
2022/04/17 11:41:10;;;;;;;4.60;1.87;;;;;;;21.79;34.00;101738.11;3581551;81;98856;-81
2022/04/17 11:46:11;;;;;;;3.80;2.15;;;;;;;21.53;32.88;101731.20;3549356;81;98582;-80
2022/04/17 11:51:20;;;;;;;5.75;2.92;;;;;;;21.68;34.28;101729.05;3581328;81;98683;-81
2022/04/17 11:56:21;;;;;;;4.55;2.00;;;;;;;21.75;33.77;101714.30;3583606;80;98754;-81
2022/04/17 12:01:24;;;;;;;6.67;2.10;;;;;;;21.80;34.45;101704.03;3597613;80;98781;-81
2022/04/17 12:06:34;;;;;;;3.85;2.10;;;;;;;21.75;33.81;101708.70;3590749;80;98799;-81
2022/04/17 12:11:29;;;;;;;4.47;1.90;;;;;;;21.82;33.47;101693.80;3589044;80;99171;-81
2022/04/17 12:16:30;;;;;;;3.45;2.10;;;;;;;21.83;33.12;101683.58;3592085;80;98543;-80
2022/04/17 12:21:31;;;;;;;5.50;2.40;;;;;;;21.13;33.56;101687.30;3597037;80;98904;-81
2022/04/17 12:26:32;;;;;;;6.70;2.70;;;;;;;21.38;34.45;101683.59;3590140;80;98696;-81
2022/04/17 12:31:36;;;;;;;4.60;2.30;;;;;;;20.79;34.07;101666.08;3528660;81;99408;-81
2022/04/17 12:36:38;;;;;;;5.87;2.62;;;;;;;20.55;35.20;101663.72;3484687;83;99305;-81
2022/04/17 12:41:48;;;;;;;4.03;1.87;;;;;;;20.27;34.04;101650.64;3490408;83;99302;-81
2022/04/17 12:46:45;;;;;;;3.22;1.62;;;;;;;19.92;34.19;101648.09;3483148;83;99271;-81
2022/04/17 12:51:59;;;;;;;4.67;2.42;;;;;;;19.56;35.12;101631.41;3492245;83;26553;-81
2022/04/17 12:57:10;;;;;;;4.85;2.00;;;;;;;19.72;36.35;101625.49;3480251;83;99163;-81
2022/04/17 13:02:24;;;;;;;4.30;2.30;;;;;;;19.49;36.24;101621.07;3495614;83;98993;-81
2022/04/17 13:07:35;;;;;;;5.92;2.52;;;;;;;19.52;36.26;101603.48;3491215;83;98724;-81
2022/04/17 13:12:43;;;;;;;5.90;2.50;;;;;;;19.40;35.35;101605.98;3497306;83;98880;-81
2022/04/17 13:17:50;;;;;;;3.12;1.95;;;;;;;19.21;35.74;101588.30;3494025;83;99255;-80
2022/04/17 13:22:51;;;;;;;4.87;2.20;;;;;;;19.16;36.38;101589.53;3497807;83;98768;-81
2022/04/17 13:27:52;;;;;;;4.23;2.10;;;;;;;19.21;36.53;101575.73;3492185;83;98776;-81
2022/04/17 13:32:53;;;;;;;3.15;1.57;;;;;;;19.36;36.95;101571.11;3497708;83;98642;-81
2022/04/17 13:38:13;;;;;;;6.53;2.00;;;;;;;19.17;36.38;101569.37;3490536;83;98847;-82
2022/04/17 13:43:14;;;;;;;7.83;2.40;;;;;;;19.23;37.39;101558.03;3496897;83;99292;-81
2022/04/17 13:48:15;;;;;;;3.58;1.52;;;;;;;18.83;36.49;101563.59;3488488;83;99434;-81
2022/04/17 13:53:16;;;;;;;3.53;1.60;;;;;;;18.43;36.89;101551.58;3490290;83;99263;-81
2022/04/17 13:58:17;;;;;;;4.28;1.95;;;;;;;18.74;38.19;101545.71;3485578;83;98327;-81
2022/04/17 14:03:18;;;;;;;4.30;1.60;;;;;;;18.63;36.58;101546.36;3490449;83;97940;-81
2022/04/17 14:08:20;;;;;;;3.97;1.70;;;;;;;18.44;37.37;101530.08;3484492;83;98655;-81
2022/04/17 14:13:21;;;;;;;4.13;1.60;;;;;;;18.30;37.11;101518.94;3490969;83;97984;-80
2022/04/17 14:18:22;;;;;;;3.93;1.80;;;;;;;17.94;38.03;101516.83;3483082;83;98902;-81
2022/04/17 14:23:22;;;;;;;5.07;1.90;;;;;;;17.74;36.99;101505.13;3467690;83;98821;-81
2022/04/17 14:28:24;;;;;;;3.27;1.50;;;;;;;17.59;38.17;101491.02;3486403;83;98827;-81
2022/04/17 14:33:25;;;;;;;3.63;1.57;;;;;;;17.64;39.78;101477.50;3491547;83;99144;-80
2022/04/17 14:38:26;;;;;;;7.23;2.23;;;;;;;17.71;39.05;101468.35;3483658;83;99012;-82
2022/04/17 14:43:27;;;;;;;4.07;1.90;;;;;;;17.59;39.45;101458.41;3490749;82;98835;-81
2022/04/17 14:48:28;;;;;;;5.42;1.75;;;;;;;17.37;38.38;101454.61;3484622;83;98891;-80
2022/04/17 14:53:30;;;;;;;4.10;1.72;;;;;;;17.09;38.65;101451.23;3489824;82;98926;-79
2022/04/17 14:58:32;;;;;;;3.37;1.45;;;;;;;16.93;38.83;101436.91;3466918;83;98422;-79
2022/04/17 15:03:33;;;;;;;4.23;1.57;;;;;;;16.84;40.35;101436.50;3464375;83;98591;-80
2022/04/17 15:08:33;;;;;;;4.73;1.70;;;;;;;16.90;39.62;101427.95;3460580;84;98625;-80
2022/04/17 15:13:34;;;;;;;4.00;1.40;;;;;;;16.79;40.04;101422.98;3468279;83;98848;-80
2022/04/17 15:18:35;;;;;;;4.57;1.83;;;;;;;16.62;40.52;101410.45;3458662;84;98886;-79
2022/04/17 15:23:37;;;;;;;4.67;1.63;;;;;;;16.64;40.95;101413.63;3465976;84;99350;-80
2022/04/17 15:28:38;;;;;;;4.10;1.97;;;;;;;16.39;40.08;101410.78;3459493;84;98897;-80
2022/04/17 15:33:40;;;;;;;3.83;1.50;;;;;;;16.14;40.70;101420.97;3466354;84;32145;-79
2022/04/17 15:38:41;;;;;;;4.10;2.30;;;;;;;16.05;43.01;101424.72;3463405;84;98728;-79
2022/04/17 15:49:02;;;;;;;4.67;2.15;;;;;;;15.58;41.65;101405.41;3460549;83;98882;-79
2022/04/17 15:54:03;;;;;;;4.53;1.73;;;;;;;15.53;40.98;101403.00;3465207;84;98779;-80
2022/04/17 15:59:04;;;;;;;4.30;1.77;;;;;;;15.38;41.94;101401.30;3486534;83;98857;-79
2022/04/17 16:04:05;;;;;;;4.27;1.73;;;;;;;15.22;42.64;101399.98;3462747;83;98615;-79
2022/04/17 16:09:08;;;;;;;3.57;1.60;;;;;;;15.11;43.51;101396.32;3491454;83;98685;-79
2022/04/17 16:14:09;;;;;;;6.50;1.77;;;;;;;14.97;42.81;101392.84;3484078;83;98956;-81
2022/04/17 16:19:13;;;;;;;3.67;1.73;;;;;;;14.89;43.54;101389.79;3469145;83;99116;-80
2022/04/17 16:24:13;;;;;;;3.93;1.50;;;;;;;14.87;43.79;101385.23;3485089;83;99006;-79
2022/04/17 16:29:14;;;;;;;4.60;1.80;;;;;;;14.82;45.14;101376.48;3489566;83;98834;-80
2022/04/17 16:34:16;;;;;;;3.90;1.70;;;;;;;14.74;45.48;101372.03;3486066;83;98550;-79
2022/04/17 16:39:17;;;;;;;4.77;1.60;;;;;;;14.62;45.40;101371.75;3492045;83;98725;-80
2022/04/17 16:44:19;;;;;;;4.23;2.00;;;;;;;14.52;45.68;101379.36;3484453;83;98735;-80
2022/04/17 16:49:20;;;;;;;4.65;1.87;;;;;;;14.34;45.68;101374.20;3491868;83;98894;-80
2022/04/17 16:54:22;;;;;;;4.13;1.70;;;;;;;14.28;46.74;101374.95;3485405;83;99192;-79
2022/04/17 16:59:23;;;;;;;6.37;2.12;;;;;;;14.23;47.52;101366.97;3452078;83;98935;-79
2022/04/17 17:04:24;;;;;;;4.33;1.80;;;;;;;14.20;47.53;101359.41;3422110;84;98660;-79
2022/04/17 17:09:25;;;;;;;6.03;2.30;;;;;;;14.15;47.70;101354.98;3428963;84;97850;-78
2022/04/17 17:14:26;;;;;;;5.77;2.37;;;;;;;14.07;48.21;101348.36;3420501;84;98767;-79
2022/04/17 17:19:27;;;;;;;6.63;2.67;;;;;;;13.98;48.09;101338.98;3432309;84;99272;-79
2022/04/17 17:24:28;;;;;;;7.78;2.60;;;;;;;13.81;48.63;101337.38;3420857;84;98899;-78
2022/04/17 17:29:29;;;;;;;6.13;2.70;;;;;;;13.75;49.12;101343.03;3429399;84;98923;-79
2022/04/17 17:34:30;;;;;;;6.80;2.40;;;;;;;13.61;48.97;101340.88;3421928;84;98953;-79
2022/04/17 17:39:31;;;;;;;3.80;1.77;;;;;;;13.45;49.50;101340.26;3433210;84;98503;-79
2022/04/17 17:44:33;;;;;;;5.15;2.20;;;;;;;13.34;49.96;101339.88;3422490;84;99101;-79
2022/04/17 17:49:34;;;;;;;5.10;2.40;;;;;;;13.21;50.54;101333.80;3435791;84;99218;-78
2022/04/17 17:54:35;;;;;;;5.97;2.70;;;;;;;13.13;50.54;101334.07;3424345;84;99409;-79
2022/04/17 17:59:37;;;;;;;6.25;3.17;;;;;;;13.00;50.76;101333.47;3481799;83;98817;-78
2022/04/17 18:04:38;;;;;;;7.97;3.10;;;;;;;12.86;50.81;101333.81;3483522;83;98859;-79
2022/04/17 18:14:58;;;;;;;10.50;3.00;;;;;;;12.59;51.13;101332.17;3482983;83;98987;-79
2022/04/17 18:20:03;;;;;;;9.30;3.33;;;;;;;12.43;51.47;101330.11;3491457;83;98803;-78
2022/04/17 18:25:07;;;;;;;11.70;4.10;;;;;;;12.20;51.79;101332.02;3484953;83;98785;-79
2022/04/17 18:30:10;;;;;;;11.85;5.20;;;;;;;12.02;52.20;101328.14;3492325;83;99446;-78
2022/04/17 18:35:11;;;;;;;13.83;6.15;;;;;;;11.76;52.79;101321.91;3483663;83;99110;-78
2022/04/17 18:40:12;;;;;;;14.23;6.60;;;;;;;11.50;53.14;101313.45;3492248;83;25791;-78
2022/04/17 18:45:13;;;;;;;14.33;6.30;;;;;;;11.29;54.06;101325.38;3485009;81;98892;-78
2022/04/17 18:50:14;;;;;;;12.77;5.67;;;;;;;11.10;54.57;101332.81;3492447;83;98793;-78
2022/04/17 18:55:15;;;;;;;13.27;6.63;;;;;;;10.85;55.18;101320.42;3485055;83;99135;-78
2022/04/17 19:00:16;;;;;;;15.67;6.50;;;;;;;10.67;56.02;101323.30;3482206;83;99124;-78
2022/04/17 19:05:17;;;;;;;14.40;5.80;;;;;;;10.50;56.87;101312.09;3470297;83;99011;-78
2022/04/17 19:10:19;;;;;;;15.07;6.10;;;;;;;10.34;57.48;101315.97;3484523;83;35409;-81
2022/04/17 19:15:20;;;;;;;14.13;6.97;;;;;;;10.18;58.29;101315.95;3477608;83;98884;-81
2022/04/17 19:20:23;;;;;;;12.43;5.43;;;;;;;10.07;58.52;101312.13;3482650;83;99165;-81
2022/04/17 19:25:24;;;;;;;14.23;6.67;;;;;;;9.95;58.87;101305.28;3477294;83;98857;-80
2022/04/17 19:30:25;;;;;;;13.30;5.50;;;;;;;9.90;59.63;101308.29;3480909;83;99113;-80
2022/04/17 19:35:26;;;;;;;14.67;6.47;;;;;;;9.82;59.88;101302.35;3474926;83;99323;-80
2022/04/17 19:40:27;;;;;;;10.83;5.20;;;;;;;9.76;60.20;101300.23;3477993;83;32978;-81
2022/04/17 19:45:30;;;;;;;10.63;4.60;;;;;;;9.70;60.57;101301.63;3475605;83;98438;-78
2022/04/17 19:50:31;;;;;;;12.87;4.60;;;;;;;9.65;60.75;101306.00;3482758;83;98342;-79
2022/04/17 19:55:32;;;;;;;11.47;4.30;;;;;;;9.59;61.00;101297.78;3469334;83;99161;-78
2022/04/17 20:00:33;;;;;;;12.17;5.40;;;;;;;9.57;61.06;101294.56;3486168;82;98607;-81
2022/04/17 20:05:34;;;;;;;13.23;6.07;;;;;;;9.56;61.16;101299.27;3480650;83;98646;-81
2022/04/17 20:10:35;;;;;;;15.60;6.13;;;;;;;9.57;61.36;101295.94;3465976;83;35398;-81
2022/04/17 20:15:36;;;;;;;14.03;6.23;;;;;;;9.61;61.53;101294.09;3478239;83;98493;-81
2022/04/17 20:20:37;;;;;;;12.70;5.67;;;;;;;9.62;61.58;101291.56;3485383;83;98382;-81
2022/04/17 20:25:39;;;;;;;12.97;5.20;;;;;;;9.63;61.95;101290.41;3482160;83;98824;-80
2022/04/17 20:30:40;;;;;;;11.13;4.70;;;;;;;9.63;62.04;101287.66;3587825;80;98623;-81
2022/04/17 20:35:43;;;;;;;11.65;4.72;;;;;;;9.58;62.85;101296.97;3582149;80;98678;-81
2022/04/17 20:40:45;;;;;;;8.47;3.80;;;;;;;9.49;62.93;101300.42;3587948;80;98697;-81
2022/04/17 20:51:08;;;;;;;15.72;6.62;;;;;;;9.27;62.87;101316.64;3587829;80;98488;-80
2022/04/17 20:56:09;;;;;;;14.87;5.80;;;;;;;9.10;62.97;101310.81;3580313;80;98928;-81
2022/04/17 21:01:10;;;;;;;13.33;6.40;;;;;;;8.95;62.47;101306.02;3544783;80;99127;-80
2022/04/17 21:06:11;;;;;;;14.50;6.83;;;;;;;8.78;61.98;101309.02;3535131;80;98623;-77
2022/04/17 21:11:12;;;;;;;11.80;5.00;;;;;;;8.70;60.71;101321.48;3543339;80;98716;-78
2022/04/17 21:16:13;;;;;;;10.90;4.47;;;;;;;8.65;58.46;101324.44;3535550;81;98396;-79
2022/04/17 21:21:13;;;;;;;10.67;4.80;;;;;;;8.60;57.71;101309.58;3538742;81;98512;-78
2022/04/17 21:26:17;;;;;;;13.07;6.17;;;;;;;8.51;57.61;101308.91;3532505;81;98847;-79
2022/04/17 21:31:19;;;;;;;15.60;5.90;;;;;;;8.37;57.19;101309.23;3527744;82;98684;-81
2022/04/17 21:36:21;;;;;;;15.80;6.55;;;;;;;8.25;56.70;101310.59;3525353;81;98744;-78
2022/04/17 21:41:29;;;;;;;10.68;4.37;;;;;;;8.15;56.32;101302.76;3538760;82;98668;-80
2022/04/17 21:46:26;;;;;;;13.40;5.30;;;;;;;8.01;56.22;101309.11;3534627;82;98355;-79
2022/04/17 21:51:27;;;;;;;9.28;3.72;;;;;;;7.88;55.98;101297.07;3534069;81;98497;-80
2022/04/17 21:56:27;;;;;;;8.87;3.37;;;;;;;7.74;55.07;101291.88;3511925;81;98775;-79
2022/04/17 22:06:48;;;;;;;10.43;3.62;;;;;;;7.52;53.94;101293.62;3525454;82;98526;-80
2022/04/17 22:11:49;;;;;;;13.47;4.60;;;;;;;7.39;53.38;101282.94;3532270;82;98982;-79
2022/04/17 22:16:51;;;;;;;10.00;3.87;;;;;;;7.26;53.23;101285.39;3528381;82;98797;-80
2022/04/17 22:21:52;;;;;;;19.50;6.50;;;;;;;7.12;52.92;101286.20;3539715;82;26407;-79
2022/04/17 22:26:57;;;;;;;12.80;4.47;;;;;;;7.02;52.94;101279.20;3524945;82;98601;-79
2022/04/17 22:31:58;;;;;;;9.65;3.22;;;;;;;6.88;52.84;101278.63;3537940;81;98579;-79
2022/04/17 22:36:58;;;;;;;9.80;3.40;;;;;;;6.69;52.96;101277.47;3532185;82;98573;-78
2022/04/17 22:41:59;;;;;;;9.67;3.13;;;;;;;6.55;53.55;101272.81;3532587;82;98431;-79
2022/04/17 22:47:00;;;;;;;13.77;4.10;;;;;;;6.38;53.74;101265.48;3530667;81;98505;-79
2022/04/17 22:52:01;;;;;;;6.97;2.33;;;;;;;6.23;53.93;101272.84;3539826;82;35421;-77
2022/04/17 22:57:02;;;;;;;6.83;2.53;;;;;;;6.09;54.13;101272.83;3437065;84;98602;-79
2022/04/17 23:02:04;;;;;;;5.63;1.70;;;;;;;5.96;53.80;101273.29;3507092;82;98746;-79
2022/04/17 23:07:08;;;;;;;9.90;3.40;;;;;;;5.81;53.71;101269.70;3524380;82;98533;-79
2022/04/17 23:12:08;;;;;;;8.53;2.10;;;;;;;5.76;53.21;101271.76;3522304;82;98421;-79
2022/04/17 23:17:09;;;;;;;9.60;2.73;;;;;;;5.67;52.98;101272.35;3523934;82;98419;-79
2022/04/17 23:22:10;;;;;;;5.53;1.70;;;;;;;5.63;53.00;101274.12;3606795;80;34863;-79
2022/04/17 23:27:11;;;;;;;6.33;2.37;;;;;;;5.52;53.57;101272.84;3592265;80;98595;-78
2022/04/17 23:32:12;;;;;;;6.93;2.27;;;;;;;5.41;53.71;101262.80;3593193;80;98270;-78
2022/04/17 23:37:13;;;;;;;7.20;2.20;;;;;;;5.32;53.50;101260.66;3594085;80;98609;-79
2022/04/17 23:42:14;;;;;;;7.43;2.63;;;;;;;5.23;54.50;101252.23;3599427;80;98840;-78
2022/04/17 23:47:15;;;;;;;6.70;2.13;;;;;;;5.08;54.75;101252.12;3590443;80;98385;-79
2022/04/17 23:52:16;;;;;;;5.62;1.95;;;;;;;4.95;55.18;101242.73;3599643;80;34828;-79
2022/04/17 23:57:18;;;;;;;6.53;2.52;;;;;;;4.82;55.70;101240.41;3592425;80;98243;-79
